Time;durP1;ratioP1;P1;durP2;ratioP2;P2;SDS_P1;SDS_P2;PMS_P1;PMS_P2;Temp;Humidity;BMP_temperature;BMP_pressure;BME280_temperature;BME280_humidity;BME280_pressure;Samples;Min_cycle;Max_cycle;Signal;HPM_P1;HPM_P2
2021/09/03 00:02:13;;;;;;;12.45;10.02;;;;;;;;;;5038635;28;20025;-89
2021/09/03 00:04:39;;;;;;;16.45;9.95;;;;;;;;;;5038321;28;20022;-86
2021/09/03 00:07:05;;;;;;;17.52;9.35;;;;;;;;;;5036702;28;20041;-86
2021/09/03 00:09:31;;;;;;;14.50;10.18;;;;;;;;;;5038267;28;20033;-87
2021/09/03 00:11:57;;;;;;;13.43;9.65;;;;;;;;;;5038110;28;20033;-86
2021/09/03 00:14:23;;;;;;;15.05;10.25;;;;;;;;;;5038220;28;20104;-85
2021/09/03 00:16:49;;;;;;;14.73;10.27;;;;;;;;;;5037612;28;20022;-85
2021/09/03 00:19:15;;;;;;;17.33;10.75;;;;;;;;;;5038195;28;20025;-84
2021/09/03 00:21:41;;;;;;;18.80;10.63;;;;;;;;;;5036814;28;20104;-84
2021/09/03 00:24:08;;;;;;;12.63;10.02;;;;;;;;;;5037933;28;20021;-84
2021/09/03 00:26:34;;;;;;;15.05;10.25;;;;;;;;;;5037590;28;20455;-84
2021/09/03 00:29:00;;;;;;;14.10;10.13;;;;;;;;;;5037894;28;20457;-86
2021/09/03 00:31:26;;;;;;;13.68;10.07;;;;;;;;;;5038029;28;20412;-87
2021/09/03 00:33:52;;;;;;;15.68;10.68;;;;;;;;;;5038025;28;20029;-87
2021/09/03 00:36:18;;;;;;;15.15;9.95;;;;;;;;;;5037900;28;20033;-86
2021/09/03 00:38:44;;;;;;;13.15;9.90;;;;;;;;;;5037637;28;20025;-88
2021/09/03 00:41:10;;;;;;;14.63;10.00;;;;;;;;;;5036953;28;20151;-87
2021/09/03 00:43:36;;;;;;;14.77;10.30;;;;;;;;;;5036823;28;20030;-87
2021/09/03 00:46:02;;;;;;;21.73;10.35;;;;;;;;;;5037916;28;20022;-87
2021/09/03 00:48:28;;;;;;;15.30;11.60;;;;;;;;;;5038002;28;20021;-88
2021/09/03 00:50:54;;;;;;;19.90;11.23;;;;;;;;;;5037788;28;20030;-87
2021/09/03 00:53:20;;;;;;;16.17;9.75;;;;;;;;;;5036788;28;20021;-87
2021/09/03 00:55:47;;;;;;;16.33;10.57;;;;;;;;;;5037537;28;20422;-87
2021/09/03 00:58:13;;;;;;;13.98;10.57;;;;;;;;;;5036373;28;20530;-87
2021/09/03 01:00:39;;;;;;;14.23;9.88;;;;;;;;;;5037452;28;20022;-87
2021/09/03 01:03:05;;;;;;;14.40;10.27;;;;;;;;;;5037987;28;20125;-88
2021/09/03 01:05:31;;;;;;;16.63;10.82;;;;;;;;;;5037824;28;20022;-85
2021/09/03 01:07:57;;;;;;;15.00;10.80;;;;;;;;;;5037739;28;20022;-86
2021/09/03 01:10:24;;;;;;;15.52;10.85;;;;;;;;;;5036644;28;20026;-85
2021/09/03 01:12:50;;;;;;;17.40;11.77;;;;;;;;;;5037268;28;20075;-87
2021/09/03 01:15:17;;;;;;;16.40;11.30;;;;;;;;;;5037379;28;20089;-86
2021/09/03 01:17:43;;;;;;;13.00;10.35;;;;;;;;;;5036208;28;20033;-86
2021/09/03 01:20:10;;;;;;;15.75;11.32;;;;;;;;;;5040636;28;20037;-86
2021/09/03 01:22:36;;;;;;;17.90;11.88;;;;;;;;;;5040227;28;20116;-86
2021/09/03 01:25:02;;;;;;;16.50;11.65;;;;;;;;;;5041461;28;20026;-86
2021/09/03 01:27:28;;;;;;;13.90;10.95;;;;;;;;;;5041519;28;20041;-85
2021/09/03 01:29:54;;;;;;;18.42;12.10;;;;;;;;;;5041023;28;20053;-84
2021/09/03 01:32:20;;;;;;;18.15;11.80;;;;;;;;;;5041143;28;20311;-85
2021/09/03 01:34:47;;;;;;;15.98;11.30;;;;;;;;;;5040019;28;20029;-85
2021/09/03 01:37:13;;;;;;;17.80;12.05;;;;;;;;;;5040704;28;20116;-85
2021/09/03 01:39:39;;;;;;;18.27;12.15;;;;;;;;;;5039975;28;20022;-85
2021/09/03 01:42:05;;;;;;;15.07;11.18;;;;;;;;;;5040986;28;20068;-87
2021/09/03 01:44:31;;;;;;;17.42;11.63;;;;;;;;;;5039891;28;20030;-87
2021/09/03 01:46:58;;;;;;;14.77;11.60;;;;;;;;;;5039918;28;20021;-87
2021/09/03 01:49:24;;;;;;;16.80;11.68;;;;;;;;;;5039955;28;20026;-87
2021/09/03 01:51:50;;;;;;;19.15;12.88;;;;;;;;;;5040855;28;20100;-87
2021/09/03 01:54:16;;;;;;;14.32;12.20;;;;;;;;;;5039979;28;20319;-87
2021/09/03 01:56:43;;;;;;;15.63;10.93;;;;;;;;;;5040593;28;20029;-88
2021/09/03 01:59:09;;;;;;;16.08;11.75;;;;;;;;;;5040698;28;20030;-87
2021/09/03 02:01:35;;;;;;;19.08;12.32;;;;;;;;;;5040954;28;20045;-86
2021/09/03 02:04:01;;;;;;;16.15;12.25;;;;;;;;;;5039666;28;20029;-86
2021/09/03 02:06:27;;;;;;;16.23;12.20;;;;;;;;;;5040461;28;20017;-87
2021/09/03 02:08:53;;;;;;;19.10;11.80;;;;;;;;;;5040632;28;20053;-86
2021/09/03 02:11:19;;;;;;;21.38;12.93;;;;;;;;;;5040869;28;20124;-87
2021/09/03 02:13:45;;;;;;;16.90;12.57;;;;;;;;;;5039510;28;20028;-87
2021/09/03 02:16:11;;;;;;;19.15;12.57;;;;;;;;;;5039418;28;20037;-87
2021/09/03 02:18:37;;;;;;;16.20;11.80;;;;;;;;;;5039790;28;20029;-87
2021/09/03 02:21:04;;;;;;;15.52;12.75;;;;;;;;;;5040567;28;20026;-87
2021/09/03 02:23:31;;;;;;;15.25;12.10;;;;;;;;;;5040358;28;20419;-87
2021/09/03 02:25:57;;;;;;;20.40;13.02;;;;;;;;;;5040549;28;20072;-87
2021/09/03 02:28:23;;;;;;;18.10;12.25;;;;;;;;;;5039732;28;20331;-88
2021/09/03 02:30:49;;;;;;;15.32;12.23;;;;;;;;;;5038803;28;20026;-88
2021/09/03 02:33:15;;;;;;;18.20;12.13;;;;;;;;;;5040153;28;20029;-86
2021/09/03 02:35:43;;;;;;;17.15;11.90;;;;;;;;;;5040310;28;20036;-91
2021/09/03 02:38:09;;;;;;;15.70;12.13;;;;;;;;;;5040165;28;20029;-85
2021/09/03 02:40:35;;;;;;;16.90;12.38;;;;;;;;;;5039946;28;20026;-85
2021/09/03 02:43:02;;;;;;;18.95;12.73;;;;;;;;;;5039813;28;20021;-85
2021/09/03 02:45:28;;;;;;;16.70;11.93;;;;;;;;;;5039535;28;20064;-85
2021/09/03 02:47:54;;;;;;;18.80;13.00;;;;;;;;;;5040057;28;20032;-85
2021/09/03 02:50:20;;;;;;;15.70;12.32;;;;;;;;;;5039694;28;20108;-85
2021/09/03 02:52:47;;;;;;;17.23;11.70;;;;;;;;;;5039495;28;20292;-85
2021/09/03 02:55:13;;;;;;;21.00;12.38;;;;;;;;;;5039723;28;20026;-85
2021/09/03 02:57:39;;;;;;;16.15;12.20;;;;;;;;;;5038341;28;20045;-87
2021/09/03 03:00:07;;;;;;;15.70;12.10;;;;;;;;;;5038647;28;20029;-86
2021/09/03 03:02:33;;;;;;;18.70;12.52;;;;;;;;;;5039925;28;20017;-86
2021/09/03 03:04:59;;;;;;;17.83;12.80;;;;;;;;;;5039598;28;20096;-85
2021/09/03 03:07:25;;;;;;;18.92;12.15;;;;;;;;;;5039235;28;20029;-86
2021/09/03 03:09:51;;;;;;;18.60;11.48;;;;;;;;;;5039643;28;20031;-85
2021/09/03 03:12:20;;;;;;;15.38;11.60;;;;;;;;;;5039143;28;20030;-86
2021/09/03 03:14:46;;;;;;;20.90;12.90;;;;;;;;;;5038322;28;20044;-87
2021/09/03 03:17:12;;;;;;;18.73;12.70;;;;;;;;;;5039289;28;20412;-86
2021/09/03 03:19:38;;;;;;;17.20;11.90;;;;;;;;;;5039219;28;20022;-86
2021/09/03 03:22:04;;;;;;;18.30;12.95;;;;;;;;;;5039203;28;20117;-86
2021/09/03 03:24:30;;;;;;;19.80;12.38;;;;;;;;;;5039115;28;20040;-86
2021/09/03 03:26:56;;;;;;;18.02;12.98;;;;;;;;;;5038985;28;20462;-86
2021/09/03 03:29:23;;;;;;;19.67;12.98;;;;;;;;;;5039008;28;20025;-85
2021/09/03 03:31:49;;;;;;;14.10;12.02;;;;;;;;;;5038097;28;20025;-85
2021/09/03 03:34:15;;;;;;;16.83;13.23;;;;;;;;;;5039060;28;20029;-87
2021/09/03 03:36:41;;;;;;;19.25;12.90;;;;;;;;;;5039036;28;20029;-86
2021/09/03 03:39:08;;;;;;;16.90;12.63;;;;;;;;;;5039129;28;20026;-86
2021/09/03 03:41:34;;;;;;;16.05;12.95;;;;;;;;;;5038009;28;20056;-86
2021/09/03 03:44:01;;;;;;;19.55;13.30;;;;;;;;;;5038682;28;20113;-86
2021/09/03 03:46:27;;;;;;;17.33;12.68;;;;;;;;;;5038660;28;20091;-86
2021/09/03 03:48:53;;;;;;;21.35;13.40;;;;;;;;;;5038735;28;20040;-86
2021/09/03 03:51:20;;;;;;;19.48;12.85;;;;;;;;;;5038546;28;20021;-86
2021/09/03 03:53:46;;;;;;;17.88;12.88;;;;;;;;;;5038545;28;20513;-87
2021/09/03 03:56:12;;;;;;;19.63;13.10;;;;;;;;;;5038241;28;20042;-87
2021/09/03 03:58:38;;;;;;;20.38;13.45;;;;;;;;;;5037421;28;20435;-87
2021/09/03 04:01:04;;;;;;;17.27;12.73;;;;;;;;;;5038326;28;20452;-85
2021/09/03 04:03:31;;;;;;;21.05;13.38;;;;;;;;;;5037397;28;20030;-85
2021/09/03 04:05:57;;;;;;;20.00;13.13;;;;;;;;;;5038209;28;20025;-85
2021/09/03 04:08:23;;;;;;;24.92;12.90;;;;;;;;;;5038513;28;20052;-87
2021/09/03 04:10:51;;;;;;;24.33;14.02;;;;;;;;;;5038488;28;20029;-86
2021/09/03 04:13:19;;;;;;;22.23;13.80;;;;;;;;;;5037115;28;20032;-86
2021/09/03 04:15:45;;;;;;;19.42;13.88;;;;;;;;;;5038088;28;20029;-86
2021/09/03 04:18:11;;;;;;;23.27;13.60;;;;;;;;;;5038389;28;20060;-86
2021/09/03 04:20:37;;;;;;;22.67;14.60;;;;;;;;;;5038193;28;20029;-86
2021/09/03 04:23:03;;;;;;;21.20;13.73;;;;;;;;;;5038098;28;20057;-87
2021/09/03 04:25:30;;;;;;;19.50;13.18;;;;;;;;;;5037996;28;20021;-86
2021/09/03 04:27:56;;;;;;;27.95;13.98;;;;;;;;;;5037930;28;20486;-85
2021/09/03 04:30:22;;;;;;;29.60;15.27;;;;;;;;;;5038621;28;20026;-83
2021/09/03 04:32:48;;;;;;;19.48;14.23;;;;;;;;;;5039261;28;20464;-84
2021/09/03 04:35:14;;;;;;;20.92;14.88;;;;;;;;;;5044874;28;20032;-84
2021/09/03 04:38:02;;;;;;;24.70;15.10;;;;;;;;;;5057774;28;20315;-84
2021/09/03 04:40:28;;;;;;;21.13;14.00;;;;;;;;;;5039847;28;20028;-84
2021/09/03 04:42:54;;;;;;;25.33;13.75;;;;;;;;;;5036966;28;20029;-84
2021/09/03 04:45:20;;;;;;;24.77;14.80;;;;;;;;;;5036561;28;20067;-84
2021/09/03 04:47:46;;;;;;;18.42;14.23;;;;;;;;;;5037548;28;20120;-84
2021/09/03 04:50:13;;;;;;;24.27;14.35;;;;;;;;;;5037583;28;20030;-84
2021/09/03 04:52:57;;;;;;;25.33;15.02;;;;;;;;;;5053972;28;20029;-84
2021/09/03 04:55:23;;;;;;;22.45;15.65;;;;;;;;;;5057276;28;20407;-84
2021/09/03 04:57:49;;;;;;;20.65;14.00;;;;;;;;;;5039557;28;20046;-86
2021/09/03 05:00:17;;;;;;;26.75;15.23;;;;;;;;;;5037570;28;20029;-84
2021/09/03 05:02:43;;;;;;;19.30;14.45;;;;;;;;;;5057485;28;20103;-84
2021/09/03 05:05:09;;;;;;;19.83;14.73;;;;;;;;;;5057695;28;20182;-85
2021/09/03 05:08:13;;;;;;;24.40;14.95;;;;;;;;;;5064033;28;20418;-85
2021/09/03 05:10:39;;;;;;;18.90;14.00;;;;;;;;;;5070917;28;20025;-87
2021/09/03 05:13:05;;;;;;;21.77;14.65;;;;;;;;;;5055503;28;20080;-89
2021/09/03 05:15:36;;;;;;;20.88;15.30;;;;;;;;;;5056763;28;20060;-88
2021/09/03 05:18:02;;;;;;;25.65;15.50;;;;;;;;;;5057449;28;20361;-88
2021/09/03 05:20:28;;;;;;;24.48;15.07;;;;;;;;;;5056425;28;20029;-89
2021/09/03 05:22:55;;;;;;;21.90;14.77;;;;;;;;;;5057183;28;20044;-89
2021/09/03 05:25:21;;;;;;;23.80;15.35;;;;;;;;;;5056245;28;20028;-89
2021/09/03 05:27:47;;;;;;;23.60;16.23;;;;;;;;;;5057383;28;20060;-88
2021/09/03 05:30:14;;;;;;;21.67;16.27;;;;;;;;;;5057043;28;20100;-88
2021/09/03 05:32:40;;;;;;;20.50;15.43;;;;;;;;;;5057193;28;20068;-89
2021/09/03 05:35:07;;;;;;;28.45;17.30;;;;;;;;;;5057283;28;20033;-87
2021/09/03 05:37:33;;;;;;;24.67;15.68;;;;;;;;;;5057112;28;20025;-88
2021/09/03 05:40:00;;;;;;;27.10;16.33;;;;;;;;;;5057388;28;20021;-89
2021/09/03 05:42:26;;;;;;;20.95;15.50;;;;;;;;;;5057215;28;20021;-88
2021/09/03 05:44:52;;;;;;;21.95;16.60;;;;;;;;;;5056026;28;20083;-89
2021/09/03 05:47:18;;;;;;;22.80;16.08;;;;;;;;;;5057526;28;20307;-89
2021/09/03 05:49:44;;;;;;;23.23;16.88;;;;;;;;;;5057003;28;20407;-88
2021/09/03 05:52:11;;;;;;;23.92;16.65;;;;;;;;;;5056030;28;20029;-88
2021/09/03 05:54:37;;;;;;;28.90;18.08;;;;;;;;;;5056230;28;20037;-89
2021/09/03 05:57:05;;;;;;;24.88;17.10;;;;;;;;;;5055575;28;20072;-88
2021/09/03 05:59:31;;;;;;;29.00;19.08;;;;;;;;;;5056985;28;20029;-89
2021/09/03 06:01:57;;;;;;;25.00;16.90;;;;;;;;;;5056010;28;20052;-88
2021/09/03 06:04:23;;;;;;;25.02;17.40;;;;;;;;;;5056297;28;20033;-89
2021/09/03 06:06:49;;;;;;;26.25;17.77;;;;;;;;;;5060570;28;20025;-89
2021/09/03 06:09:15;;;;;;;23.08;17.25;;;;;;;;;;5060458;28;20112;-89
2021/09/03 06:11:41;;;;;;;22.40;16.35;;;;;;;;;;5060874;28;20108;-90
2021/09/03 06:14:07;;;;;;;23.90;17.13;;;;;;;;;;5059598;28;20033;-88
2021/09/03 06:16:33;;;;;;;18.90;15.45;;;;;;;;;;5060407;28;20021;-90
2021/09/03 06:18:59;;;;;;;25.52;17.13;;;;;;;;;;5059147;28;20063;-89
2021/09/03 06:21:26;;;;;;;20.92;16.25;;;;;;;;;;5059996;28;20068;-90
2021/09/03 06:23:53;;;;;;;22.98;16.60;;;;;;;;;;5060312;28;20379;-88
2021/09/03 06:26:19;;;;;;;19.10;15.95;;;;;;;;;;5059329;28;20064;-88
2021/09/03 06:28:45;;;;;;;20.90;16.02;;;;;;;;;;5060516;28;20033;-90
2021/09/03 06:31:11;;;;;;;20.85;15.93;;;;;;;;;;5059351;28;20040;-89
2021/09/03 06:33:37;;;;;;;18.25;15.40;;;;;;;;;;5059167;28;20116;-90
2021/09/03 06:36:03;;;;;;;18.95;15.77;;;;;;;;;;5060047;28;20032;-88
2021/09/03 06:38:31;;;;;;;21.20;15.68;;;;;;;;;;5060008;28;20423;-89
2021/09/03 06:40:58;;;;;;;19.42;15.38;;;;;;;;;;5058964;28;20326;-89
2021/09/03 06:43:24;;;;;;;18.25;14.30;;;;;;;;;;5058930;28;20076;-89
2021/09/03 06:45:50;;;;;;;15.82;12.98;;;;;;;;;;5058718;28;20055;-89
2021/09/03 06:48:21;;;;;;;18.58;13.57;;;;;;;;;;5059008;28;20029;-87
2021/09/03 06:50:47;;;;;;;20.35;13.35;;;;;;;;;;5059779;28;20344;-89
2021/09/03 06:53:13;;;;;;;15.43;12.68;;;;;;;;;;5058693;28;20052;-89
2021/09/03 06:55:39;;;;;;;23.50;16.48;;;;;;;;;;5059952;28;20028;-89
2021/09/03 06:58:06;;;;;;;18.23;12.98;;;;;;;;;;5059422;28;20453;-89
2021/09/03 07:00:32;;;;;;;16.55;12.77;;;;;;;;;;5059170;28;20108;-89
2021/09/03 07:03:00;;;;;;;20.10;15.90;;;;;;;;;;5058648;28;20017;-89
2021/09/03 07:05:26;;;;;;;19.15;13.25;;;;;;;;;;5059737;28;20048;-90
2021/09/03 07:07:52;;;;;;;16.63;13.20;;;;;;;;;;5058331;28;20037;-89
2021/09/03 07:10:18;;;;;;;18.35;13.30;;;;;;;;;;5059338;28;20021;-89
2021/09/03 07:12:44;;;;;;;17.58;13.52;;;;;;;;;;5058446;28;20035;-89
2021/09/03 07:15:10;;;;;;;18.63;14.05;;;;;;;;;;5059467;28;20025;-89
2021/09/03 07:17:36;;;;;;;21.35;17.02;;;;;;;;;;5058307;28;20086;-89
2021/09/03 07:20:03;;;;;;;15.98;12.85;;;;;;;;;;5059340;28;20354;-89
2021/09/03 07:22:29;;;;;;;33.65;20.88;;;;;;;;;;5059178;28;20037;-89
2021/09/03 07:24:55;;;;;;;28.45;21.08;;;;;;;;;;5059259;28;20063;-89
2021/09/03 07:27:21;;;;;;;19.88;14.52;;;;;;;;;;5059376;28;20040;-90
2021/09/03 07:29:47;;;;;;;15.40;12.25;;;;;;;;;;5059197;28;20025;-90
2021/09/03 07:32:13;;;;;;;19.95;15.23;;;;;;;;;;5058888;28;20048;-88
2021/09/03 07:34:39;;;;;;;16.02;12.77;;;;;;;;;;5058931;28;20070;-90
2021/09/03 07:37:05;;;;;;;27.67;20.67;;;;;;;;;;5057571;28;20075;-89
2021/09/03 07:39:31;;;;;;;48.42;33.95;;;;;;;;;;5057870;28;20032;-89
2021/09/03 07:41:57;;;;;;;35.63;25.17;;;;;;;;;;5058088;28;20025;-89
2021/09/03 07:44:24;;;;;;;23.30;14.70;;;;;;;;;;5057763;28;20032;-89
2021/09/03 07:46:50;;;;;;;13.80;10.63;;;;;;;;;;5058695;28;20029;-90
2021/09/03 07:49:16;;;;;;;32.13;21.75;;;;;;;;;;5057764;28;20028;-90
2021/09/03 07:51:42;;;;;;;64.28;44.47;;;;;;;;;;5058546;28;20048;-90
2021/09/03 07:54:08;;;;;;;30.92;22.17;;;;;;;;;;5057538;28;20056;-93
2021/09/03 15:19:01;;;;;;;2.83;2.40;;;;;;;;;;5115324;27;20365;-83
2021/09/03 15:21:27;;;;;;;3.95;2.63;;;;;;;;;;5115242;28;20024;-83
2021/09/03 15:23:53;;;;;;;9.23;3.53;;;;;;;;;;5115133;28;20393;-83
2021/09/03 15:26:19;;;;;;;4.85;2.80;;;;;;;;;;5115339;28;20016;-83
2021/09/03 15:28:45;;;;;;;3.88;2.70;;;;;;;;;;5115250;28;20066;-83
2021/09/03 15:31:11;;;;;;;8.05;3.60;;;;;;;;;;5113935;28;20032;-82
2021/09/03 15:33:37;;;;;;;6.35;3.60;;;;;;;;;;5114824;28;20069;-83
2021/09/03 15:36:03;;;;;;;14.77;8.05;;;;;;;;;;5113785;28;20124;-83
2021/09/03 15:38:29;;;;;;;7.88;3.70;;;;;;;;;;5113464;28;20058;-83
2021/09/03 15:40:55;;;;;;;9.45;6.65;;;;;;;;;;5114842;28;20020;-83
2021/09/03 15:43:22;;;;;;;7.65;4.55;;;;;;;;;;5114836;28;20028;-82
2021/09/03 15:45:48;;;;;;;6.80;4.30;;;;;;;;;;5113723;28;20069;-83
2021/09/03 15:48:14;;;;;;;6.30;4.13;;;;;;;;;;5113535;28;20032;-83
2021/09/03 15:50:44;;;;;;;6.20;3.45;;;;;;;;;;5114680;28;20034;-82
2021/09/03 15:53:11;;;;;;;5.53;3.42;;;;;;;;;;5114650;28;20043;-83
2021/09/03 15:55:37;;;;;;;5.45;3.10;;;;;;;;;;5113587;28;20043;-83
2021/09/03 15:58:05;;;;;;;7.82;2.95;;;;;;;;;;5113984;28;20077;-82
2021/09/03 16:00:31;;;;;;;4.78;2.70;;;;;;;;;;5114469;28;20345;-83
2021/09/03 16:02:58;;;;;;;4.72;3.08;;;;;;;;;;5114682;28;20036;-83
2021/09/03 16:05:24;;;;;;;4.72;2.97;;;;;;;;;;5113240;28;20028;-83
2021/09/03 16:07:53;;;;;;;4.82;3.03;;;;;;;;;;5113205;28;20042;-83
2021/09/03 16:10:19;;;;;;;4.00;2.95;;;;;;;;;;5114130;28;20110;-83
2021/09/03 16:12:45;;;;;;;4.85;2.95;;;;;;;;;;5114203;28;20409;-83
2021/09/03 16:15:15;;;;;;;8.88;3.30;;;;;;;;;;5113236;28;20032;-83
2021/09/03 16:17:41;;;;;;;4.30;2.95;;;;;;;;;;5113964;28;20055;-83
2021/09/03 16:20:08;;;;;;;4.95;2.95;;;;;;;;;;5113164;28;20405;-83
2021/09/03 16:22:34;;;;;;;3.80;2.95;;;;;;;;;;5114295;28;20024;-83
2021/09/03 16:25:01;;;;;;;5.13;2.97;;;;;;;;;;5114035;28;20024;-83
2021/09/03 16:27:27;;;;;;;4.22;2.90;;;;;;;;;;5113126;28;20350;-83
2021/09/03 16:29:55;;;;;;;4.10;2.88;;;;;;;;;;5103235;28;20024;-83
2021/09/03 16:32:21;;;;;;;5.10;3.30;;;;;;;;;;5100222;28;20045;-83
2021/09/03 16:34:47;;;;;;;5.13;3.28;;;;;;;;;;5099135;28;20044;-83
2021/09/03 16:37:13;;;;;;;6.60;3.17;;;;;;;;;;5098923;28;20483;-83
2021/09/03 16:39:39;;;;;;;5.00;3.10;;;;;;;;;;5100316;28;20024;-83
2021/09/03 16:42:05;;;;;;;6.97;3.38;;;;;;;;;;5100301;28;20440;-83
2021/09/03 16:44:33;;;;;;;6.38;3.42;;;;;;;;;;5098975;28;20063;-83
2021/09/03 16:47:00;;;;;;;6.35;3.83;;;;;;;;;;5099141;28;20143;-82
2021/09/03 16:49:26;;;;;;;9.27;3.67;;;;;;;;;;5098825;28;20062;-82
2021/09/03 16:51:52;;;;;;;7.55;3.50;;;;;;;;;;5099935;28;20051;-83
2021/09/03 16:54:19;;;;;;;11.05;4.65;;;;;;;;;;5099791;28;20077;-83
2021/09/03 16:56:45;;;;;;;10.55;5.28;;;;;;;;;;5098738;28;20035;-82
2021/09/03 16:59:11;;;;;;;12.48;6.30;;;;;;;;;;5098703;28;20027;-83
2021/09/03 17:01:37;;;;;;;18.63;6.32;;;;;;;;;;5099718;28;20396;-83
2021/09/03 17:04:03;;;;;;;24.15;4.90;;;;;;;;;;5099712;28;20322;-83
2021/09/03 17:06:29;;;;;;;15.32;3.90;;;;;;;;;;5099571;28;20103;-83
2021/09/03 17:08:55;;;;;;;7.85;4.07;;;;;;;;;;5098522;28;20024;-83
2021/09/03 17:11:21;;;;;;;4.68;3.65;;;;;;;;;;5099437;28;20465;-83
2021/09/03 17:13:49;;;;;;;6.43;3.65;;;;;;;;;;5098495;28;20047;-83
2021/09/03 17:16:15;;;;;;;10.85;4.57;;;;;;;;;;5098525;28;20024;-83
2021/09/03 17:18:41;;;;;;;7.07;5.10;;;;;;;;;;5099152;28;20372;-83
2021/09/03 17:21:07;;;;;;;13.02;5.15;;;;;;;;;;5099484;28;20043;-82
2021/09/03 17:23:33;;;;;;;13.68;5.45;;;;;;;;;;5098380;28;20017;-83
2021/09/03 17:25:59;;;;;;;21.38;8.60;;;;;;;;;;5099379;28;20428;-83
2021/09/03 17:28:26;;;;;;;31.83;14.05;;;;;;;;;;5099199;28;20290;-80
2021/09/03 17:30:52;;;;;;;31.25;14.52;;;;;;;;;;5099031;28;20036;-81
2021/09/03 17:33:18;;;;;;;37.25;17.00;;;;;;;;;;5098747;28;20028;-88
2021/09/03 17:35:44;;;;;;;51.75;22.48;;;;;;;;;;5097853;28;20028;-80
2021/09/03 17:38:10;;;;;;;90.68;41.28;;;;;;;;;;5094969;28;20070;-86
2021/09/03 17:40:36;;;;;;;97.70;45.05;;;;;;;;;;5086335;28;20477;-80
2021/09/03 17:43:02;;;;;;;145.73;67.75;;;;;;;;;;5078381;28;20406;-80
2021/09/03 17:45:28;;;;;;;110.65;54.17;;;;;;;;;;5078582;28;20025;-80
2021/09/03 17:47:54;;;;;;;134.20;61.95;;;;;;;;;;5078639;28;20029;-80
2021/09/03 17:50:20;;;;;;;137.23;62.70;;;;;;;;;;5077193;28;20064;-80
2021/09/03 17:52:47;;;;;;;113.05;55.45;;;;;;;;;;5078067;28;20422;-79
2021/09/03 17:55:15;;;;;;;109.85;52.33;;;;;;;;;;5077027;28;20041;-80
2021/09/03 17:57:41;;;;;;;90.53;41.80;;;;;;;;;;5076405;28;20107;-80
2021/09/03 18:00:07;;;;;;;70.45;35.40;;;;;;;;;;5076888;28;20062;-81
2021/09/03 18:02:35;;;;;;;71.43;35.90;;;;;;;;;;5076706;28;20060;-79
2021/09/03 18:05:01;;;;;;;50.35;22.92;;;;;;;;;;5078086;28;20098;-79
2021/09/03 18:07:27;;;;;;;29.40;14.30;;;;;;;;;;5077915;28;20032;-79
2021/09/03 18:09:53;;;;;;;27.48;12.52;;;;;;;;;;5077786;28;20031;-79
2021/09/03 18:12:20;;;;;;;15.43;8.85;;;;;;;;;;5077870;28;20471;-79
2021/09/03 18:14:46;;;;;;;15.30;8.20;;;;;;;;;;5076693;28;20042;-79
2021/09/03 18:17:12;;;;;;;15.95;8.75;;;;;;;;;;5077450;28;20338;-79
2021/09/03 18:19:38;;;;;;;15.02;9.90;;;;;;;;;;5077694;28;20025;-79
2021/09/03 18:22:04;;;;;;;17.13;9.55;;;;;;;;;;5077623;28;20048;-79
2021/09/03 18:24:30;;;;;;;20.63;10.25;;;;;;;;;;5077689;28;20052;-79
2021/09/03 18:26:56;;;;;;;20.30;10.57;;;;;;;;;;5076507;28;20037;-79
2021/09/03 18:29:22;;;;;;;21.08;11.88;;;;;;;;;;5076519;28;20032;-79
2021/09/03 18:31:49;;;;;;;14.45;8.18;;;;;;;;;;5077472;28;20025;-79
2021/09/03 18:34:15;;;;;;;12.38;6.38;;;;;;;;;;5077370;28;20350;-79
2021/09/03 18:36:41;;;;;;;10.13;5.50;;;;;;;;;;5077242;28;20050;-79
2021/09/03 18:39:07;;;;;;;11.77;5.47;;;;;;;;;;5077615;28;20029;-79
2021/09/03 18:41:33;;;;;;;7.22;4.80;;;;;;;;;;5077494;28;20025;-79
2021/09/03 18:43:59;;;;;;;11.75;5.28;;;;;;;;;;5077454;28;20040;-79
2021/09/03 18:46:25;;;;;;;9.43;5.00;;;;;;;;;;5077168;28;20025;-80
2021/09/03 18:48:51;;;;;;;7.22;5.40;;;;;;;;;;5077358;28;20025;-80
2021/09/03 18:51:18;;;;;;;9.15;5.38;;;;;;;;;;5077135;28;20103;-80
2021/09/03 18:53:44;;;;;;;6.93;4.80;;;;;;;;;;5077032;28;20025;-80
2021/09/03 18:56:10;;;;;;;13.30;5.03;;;;;;;;;;5077217;28;20234;-81
2021/09/03 18:58:36;;;;;;;8.35;4.95;;;;;;;;;;5075997;28;20029;-80
2021/09/03 19:01:02;;;;;;;6.88;4.18;;;;;;;;;;5076037;28;20028;-80
2021/09/03 19:03:28;;;;;;;8.15;4.60;;;;;;;;;;5077305;28;20021;-81
2021/09/03 19:05:54;;;;;;;11.38;4.63;;;;;;;;;;5075983;28;20029;-81
2021/09/03 19:08:23;;;;;;;8.95;4.82;;;;;;;;;;5076016;28;20157;-81
2021/09/03 19:10:49;;;;;;;8.38;4.80;;;;;;;;;;5075906;28;20076;-81
2021/09/03 19:13:15;;;;;;;9.73;5.68;;;;;;;;;;5077013;28;20024;-81
2021/09/03 19:15:43;;;;;;;7.60;5.05;;;;;;;;;;5077280;28;20024;-81
2021/09/03 19:18:09;;;;;;;9.73;4.93;;;;;;;;;;5076548;28;20144;-81
2021/09/03 19:20:38;;;;;;;10.55;4.82;;;;;;;;;;5076941;28;20381;-80
2021/09/03 19:23:04;;;;;;;10.15;4.88;;;;;;;;;;5075780;28;20037;-80
2021/09/03 19:25:30;;;;;;;7.97;6.07;;;;;;;;;;5076940;28;20289;-81
2021/09/03 19:27:56;;;;;;;11.65;6.03;;;;;;;;;;5076951;28;20417;-81
2021/09/03 19:30:23;;;;;;;12.20;5.72;;;;;;;;;;5077040;28;20044;-81
2021/09/03 19:32:49;;;;;;;8.15;5.18;;;;;;;;;;5076766;28;20020;-80
2021/09/03 19:35:15;;;;;;;8.20;4.85;;;;;;;;;;5076791;28;20021;-81
2021/09/03 19:37:42;;;;;;;10.80;5.38;;;;;;;;;;5075691;28;20025;-81
2021/09/03 19:40:08;;;;;;;11.13;4.78;;;;;;;;;;5076788;28;20100;-81
2021/09/03 19:42:35;;;;;;;6.82;4.88;;;;;;;;;;5076823;28;20043;-81
2021/09/03 19:45:01;;;;;;;5.22;4.60;;;;;;;;;;5076785;28;20020;-81
2021/09/03 19:47:28;;;;;;;7.78;5.10;;;;;;;;;;5076987;28;20029;-80
2021/09/03 19:49:54;;;;;;;7.88;4.80;;;;;;;;;;5076692;28;20120;-81
2021/09/03 19:52:21;;;;;;;9.52;4.65;;;;;;;;;;5075425;28;20445;-81
2021/09/03 19:54:47;;;;;;;10.07;5.03;;;;;;;;;;5076816;28;20029;-81
2021/09/03 19:57:13;;;;;;;9.43;4.78;;;;;;;;;;5076470;28;20066;-81
2021/09/03 19:59:39;;;;;;;8.65;5.05;;;;;;;;;;5076768;28;20028;-81
2021/09/03 20:02:05;;;;;;;9.52;4.88;;;;;;;;;;5075583;28;20437;-81
2021/09/03 20:04:31;;;;;;;9.15;4.65;;;;;;;;;;5077122;28;20405;-81
2021/09/03 20:06:57;;;;;;;5.88;4.90;;;;;;;;;;5080245;28;20509;-81
2021/09/03 20:09:23;;;;;;;6.35;4.82;;;;;;;;;;5080118;28;20027;-80
2021/09/03 20:11:49;;;;;;;6.53;4.90;;;;;;;;;;5080377;28;20134;-81
2021/09/03 20:14:15;;;;;;;8.77;4.72;;;;;;;;;;5080254;28;20024;-81
2021/09/03 20:16:42;;;;;;;9.13;5.30;;;;;;;;;;5080511;28;20040;-87
2021/09/03 20:19:08;;;;;;;7.13;4.80;;;;;;;;;;5088864;28;20024;-87
2021/09/03 20:21:35;;;;;;;8.93;5.00;;;;;;;;;;5086114;28;20025;-88
2021/09/03 20:24:02;;;;;;;14.02;5.10;;;;;;;;;;5081051;28;20027;-88
2021/09/03 20:26:28;;;;;;;10.52;5.40;;;;;;;;;;5100654;28;20436;-86
2021/09/03 20:28:54;;;;;;;7.75;4.65;;;;;;;;;;5099748;28;20337;-86
2021/09/03 20:31:20;;;;;;;9.88;5.28;;;;;;;;;;5093215;28;20044;-85
2021/09/03 20:33:46;;;;;;;8.02;4.90;;;;;;;;;;5079368;28;20024;-85
2021/09/03 20:36:12;;;;;;;7.15;5.18;;;;;;;;;;5079525;28;20032;-86
2021/09/03 20:38:57;;;;;;;7.28;5.03;;;;;;;;;;5081995;28;20055;-92
2021/09/03 20:41:23;;;;;;;9.77;5.13;;;;;;;;;;5080984;28;20108;-92
2021/09/03 20:43:49;;;;;;;7.03;5.00;;;;;;;;;;5080358;28;20021;-90
2021/09/03 20:46:15;;;;;;;7.38;4.88;;;;;;;;;;5080152;28;20052;-88
2021/09/03 20:48:41;;;;;;;8.75;5.35;;;;;;;;;;5080431;28;20341;-88
2021/09/03 20:51:07;;;;;;;7.57;5.10;;;;;;;;;;5079146;28;20028;-87
2021/09/03 20:53:33;;;;;;;6.53;4.88;;;;;;;;;;5079869;28;20414;-87
2021/09/03 20:55:59;;;;;;;10.85;5.20;;;;;;;;;;5090871;28;20028;-86
2021/09/03 20:58:25;;;;;;;7.13;4.80;;;;;;;;;;5100282;28;20028;-91
2021/09/03 21:00:52;;;;;;;5.75;5.10;;;;;;;;;;5100076;28;20031;-89
2021/09/03 21:03:18;;;;;;;6.43;4.82;;;;;;;;;;5096686;28;20103;-89
2021/09/03 21:05:44;;;;;;;8.70;5.28;;;;;;;;;;5099925;28;20024;-90
2021/09/03 21:08:10;;;;;;;8.10;5.53;;;;;;;;;;5099576;28;20093;-89
2021/09/03 21:10:38;;;;;;;8.70;4.82;;;;;;;;;;5099723;28;20027;-90
2021/09/03 21:13:09;;;;;;;8.98;5.32;;;;;;;;;;5099658;28;20070;-89
2021/09/03 21:15:35;;;;;;;7.90;5.00;;;;;;;;;;5099402;28;20028;-86
2021/09/03 21:18:01;;;;;;;8.82;5.10;;;;;;;;;;5099090;28;20378;-89
2021/09/03 21:20:27;;;;;;;7.90;4.95;;;;;;;;;;5098759;28;20020;-91
2021/09/03 21:22:53;;;;;;;6.70;5.20;;;;;;;;;;5099685;28;20031;-88
2021/09/03 21:25:19;;;;;;;7.10;4.68;;;;;;;;;;5099562;28;20016;-89
2021/09/03 21:27:45;;;;;;;5.72;4.68;;;;;;;;;;5099846;28;20031;-87
2021/09/03 21:30:12;;;;;;;12.73;5.10;;;;;;;;;;5098523;28;20123;-88
2021/09/03 21:32:38;;;;;;;7.05;4.80;;;;;;;;;;5098333;28;20064;-88
2021/09/03 21:35:05;;;;;;;12.98;5.10;;;;;;;;;;5098495;28;20118;-88
2021/09/03 21:37:31;;;;;;;6.97;5.40;;;;;;;;;;5098205;28;20032;-88
2021/09/03 21:39:57;;;;;;;9.23;4.90;;;;;;;;;;5099113;28;20058;-88
2021/09/03 21:42:23;;;;;;;8.80;4.95;;;;;;;;;;5098396;28;20421;-88
2021/09/03 21:44:49;;;;;;;9.38;4.90;;;;;;;;;;5098407;28;20314;-87